sensor_id;sensor_type;location;lat;lon;timestamp;pressure;altitude;pressure_sealevel;temperature;humidity
64886;BME280;51514;52.206;5.114;2023-04-04T00:00:08;103163.53;;;3.97;65.14
64886;BME280;51514;52.206;5.114;2023-04-04T00:02:33;103162.72;;;3.95;64.52
64886;BME280;51514;52.206;5.114;2023-04-04T00:05:00;103156.50;;;3.95;64.99
64886;BME280;51514;52.206;5.114;2023-04-04T00:07:25;103158.47;;;3.90;64.67
64886;BME280;51514;52.206;5.114;2023-04-04T00:09:51;103147.94;;;3.87;65.42
64886;BME280;51514;52.206;5.114;2023-04-04T00:12:16;103145.47;;;3.81;65.35
64886;BME280;51514;52.206;5.114;2023-04-04T00:14:42;103145.69;;;3.76;66.19
64886;BME280;51514;52.206;5.114;2023-04-04T00:17:07;103145.78;;;3.73;66.52
64886;BME280;51514;52.206;5.114;2023-04-04T00:19:33;103135.38;;;3.67;66.88
64886;BME280;51514;52.206;5.114;2023-04-04T00:21:58;103134.59;;;3.63;66.50
64886;BME280;51514;52.206;5.114;2023-04-04T00:24:24;103140.81;;;3.64;66.98
64886;BME280;51514;52.206;5.114;2023-04-04T00:26:49;103131.09;;;3.61;67.61
64886;BME280;51514;52.206;5.114;2023-04-04T00:29:15;103134.94;;;3.54;67.81
64886;BME280;51514;52.206;5.114;2023-04-04T00:31:41;103132.34;;;3.53;68.03
64886;BME280;51514;52.206;5.114;2023-04-04T00:34:07;103119.91;;;3.52;67.88
64886;BME280;51514;52.206;5.114;2023-04-04T00:36:32;103114.47;;;3.55;68.08
64886;BME280;51514;52.206;5.114;2023-04-04T00:38:57;103126.91;;;3.56;68.61
64886;BME280;51514;52.206;5.114;2023-04-04T00:41:23;103126.75;;;3.59;68.70
64886;BME280;51514;52.206;5.114;2023-04-04T00:43:48;103134.66;;;3.62;68.51
64886;BME280;51514;52.206;5.114;2023-04-04T00:46:14;103133.72;;;3.63;68.19
64886;BME280;51514;52.206;5.114;2023-04-04T00:48:42;103134.69;;;3.60;68.34
64886;BME280;51514;52.206;5.114;2023-04-04T00:51:07;103134.69;;;3.60;68.34
64886;BME280;51514;52.206;5.114;2023-04-04T00:53:33;103137.44;;;3.59;68.68
64886;BME280;51514;52.206;5.114;2023-04-04T00:55:58;103134.94;;;3.54;69.05
64886;BME280;51514;52.206;5.114;2023-04-04T00:58:24;103127.94;;;3.52;68.83
64886;BME280;51514;52.206;5.114;2023-04-04T01:00:50;103125.38;;;3.49;68.85
64886;BME280;51514;52.206;5.114;2023-04-04T01:03:17;103125.38;;;3.49;69.40
64886;BME280;51514;52.206;5.114;2023-04-04T01:05:42;103122.84;;;3.46;68.63
64886;BME280;51514;52.206;5.114;2023-04-04T01:08:08;103119.50;;;3.39;68.67
64886;BME280;51514;52.206;5.114;2023-04-04T01:10:33;103121.41;;;3.36;68.88
64886;BME280;51514;52.206;5.114;2023-04-04T01:12:59;103117.03;;;3.35;68.68
64886;BME280;51514;52.206;5.114;2023-04-04T01:15:25;103129.66;;;3.29;69.75
64886;BME280;51514;52.206;5.114;2023-04-04T01:17:52;103119.22;;;3.23;70.58
64886;BME280;51514;52.206;5.114;2023-04-04T01:20:24;103116.59;;;3.22;70.45
64886;BME280;51514;52.206;5.114;2023-04-04T01:22:51;103113.81;;;3.25;71.06
64886;BME280;51514;52.206;5.114;2023-04-04T01:25:18;103120.72;;;3.30;70.69
64886;BME280;51514;52.206;5.114;2023-04-04T01:27:45;103119.59;;;3.36;71.05
64886;BME280;51514;52.206;5.114;2023-04-04T01:30:11;103117.91;;;3.35;70.26
64886;BME280;51514;52.206;5.114;2023-04-04T01:32:58;103126.28;;;3.24;71.49
64886;BME280;51514;52.206;5.114;2023-04-04T01:35:37;103128.34;;;3.16;71.63
64886;BME280;51514;52.206;5.114;2023-04-04T01:38:22;103119.38;;;3.19;70.80
64886;BME280;51514;52.206;5.114;2023-04-04T01:40:54;103128.47;;;3.13;71.92
64886;BME280;51514;52.206;5.114;2023-04-04T01:43:21;103134.72;;;3.12;71.11
64886;BME280;51514;52.206;5.114;2023-04-04T01:45:47;103126.00;;;3.07;71.38
64886;BME280;51514;52.206;5.114;2023-04-04T01:48:13;103127.03;;;3.03;71.58
64886;BME280;51514;52.206;5.114;2023-04-04T01:50:40;103118.25;;;3.01;71.78
64886;BME280;51514;52.206;5.114;2023-04-04T01:53:06;103126.19;;;3.03;71.47
64886;BME280;51514;52.206;5.114;2023-04-04T01:55:31;103117.13;;;3.07;71.08
64886;BME280;51514;52.206;5.114;2023-04-04T01:57:56;103125.09;;;3.08;71.39
64886;BME280;51514;52.206;5.114;2023-04-04T02:00:22;103116.28;;;3.06;71.07
64886;BME280;51514;52.206;5.114;2023-04-04T02:02:47;103122.38;;;3.10;70.48
64886;BME280;51514;52.206;5.114;2023-04-04T02:05:12;103127.69;;;3.10;70.54
64886;BME280;51514;52.206;5.114;2023-04-04T02:07:38;103119.66;;;3.11;70.66
64886;BME280;51514;52.206;5.114;2023-04-04T02:10:03;103125.00;;;3.11;70.05
64886;BME280;51514;52.206;5.114;2023-04-04T02:12:29;103125.09;;;3.08;70.00
64886;BME280;51514;52.206;5.114;2023-04-04T02:14:54;103131.97;;;3.14;70.41
64886;BME280;51514;52.206;5.114;2023-04-04T02:17:19;103131.13;;;3.13;70.69
64886;BME280;51514;52.206;5.114;2023-04-04T02:19:45;103135.50;;;3.14;70.37
64886;BME280;51514;52.206;5.114;2023-04-04T02:22:10;103129.97;;;3.20;69.55
64886;BME280;51514;52.206;5.114;2023-04-04T02:24:36;103127.06;;;3.26;69.90
64886;BME280;51514;52.206;5.114;2023-04-04T02:27:01;103137.53;;;3.33;69.46
64886;BME280;51514;52.206;5.114;2023-04-04T02:29:26;103131.16;;;3.37;68.93
64886;BME280;51514;52.206;5.114;2023-04-04T02:31:52;103132.63;;;3.45;69.22
64886;BME280;51514;52.206;5.114;2023-04-04T02:34:17;103127.22;;;3.47;69.12
64886;BME280;51514;52.206;5.114;2023-04-04T02:36:43;103128.16;;;3.46;68.97
64886;BME280;51514;52.206;5.114;2023-04-04T02:39:08;103128.84;;;3.51;68.67
64886;BME280;51514;52.206;5.114;2023-04-04T02:41:34;103110.69;;;3.60;69.01
64886;BME280;51514;52.206;5.114;2023-04-04T02:43:59;103103.34;;;3.67;69.05
64886;BME280;51514;52.206;5.114;2023-04-04T02:46:25;103105.81;;;3.72;68.14
64886;BME280;51514;52.206;5.114;2023-04-04T02:48:51;103111.91;;;3.75;68.09
64886;BME280;51514;52.206;5.114;2023-04-04T02:51:17;103103.91;;;3.75;68.61
64886;BME280;51514;52.206;5.114;2023-04-04T02:53:42;103099.41;;;3.77;67.97
64886;BME280;51514;52.206;5.114;2023-04-04T02:56:07;103092.19;;;3.79;67.83
64886;BME280;51514;52.206;5.114;2023-04-04T02:58:33;103097.72;;;3.75;68.12
64886;BME280;51514;52.206;5.114;2023-04-04T03:00:59;103093.25;;;3.75;68.65
64886;BME280;51514;52.206;5.114;2023-04-04T03:03:24;103095.91;;;3.75;67.85
64886;BME280;51514;52.206;5.114;2023-04-04T03:05:50;103096.03;;;3.72;68.41
64886;BME280;51514;52.206;5.114;2023-04-04T03:08:15;103099.56;;;3.73;67.97
64886;BME280;51514;52.206;5.114;2023-04-04T03:10:41;103101.59;;;3.66;68.32
64886;BME280;51514;52.206;5.114;2023-04-04T03:13:06;103103.47;;;3.64;68.08
64886;BME280;51514;52.206;5.114;2023-04-04T03:15:32;103097.31;;;3.62;68.53
64886;BME280;51514;52.206;5.114;2023-04-04T03:17:58;103100.09;;;3.59;68.04
64886;BME280;51514;52.206;5.114;2023-04-04T03:20:24;103104.63;;;3.57;68.46
64886;BME280;51514;52.206;5.114;2023-04-04T03:22:50;103101.88;;;3.58;68.17
64886;BME280;51514;52.206;5.114;2023-04-04T03:25:15;103101.00;;;3.58;68.36
64886;BME280;51514;52.206;5.114;2023-04-04T03:27:41;103088.53;;;3.58;68.09
64886;BME280;51514;52.206;5.114;2023-04-04T03:30:07;103098.47;;;3.55;68.57
64886;BME280;51514;52.206;5.114;2023-04-04T03:32:33;103095.00;;;3.53;68.00
64886;BME280;51514;52.206;5.114;2023-04-04T03:34:58;103092.44;;;3.50;68.47
64886;BME280;51514;52.206;5.114;2023-04-04T03:37:24;103095.06;;;3.51;68.41
64886;BME280;51514;52.206;5.114;2023-04-04T03:39:49;103089.81;;;3.48;68.67
64886;BME280;51514;52.206;5.114;2023-04-04T03:42:14;103088.16;;;3.46;68.42
64886;BME280;51514;52.206;5.114;2023-04-04T03:44:40;103088.16;;;3.46;68.43
64886;BME280;51514;52.206;5.114;2023-04-04T03:47:06;103094.22;;;3.49;68.47
64886;BME280;51514;52.206;5.114;2023-04-04T03:49:31;103093.31;;;3.50;68.41
64886;BME280;51514;52.206;5.114;2023-04-04T03:51:58;103099.50;;;3.51;68.46
64886;BME280;51514;52.206;5.114;2023-04-04T03:54:23;103096.03;;;3.49;68.81
64886;BME280;51514;52.206;5.114;2023-04-04T03:56:48;103089.88;;;3.47;68.88
64886;BME280;51514;52.206;5.114;2023-04-04T03:59:15;103099.63;;;3.48;68.49
64886;BME280;51514;52.206;5.114;2023-04-04T04:01:41;103098.84;;;3.46;68.75
64886;BME280;51514;52.206;5.114;2023-04-04T04:04:06;103093.50;;;3.46;68.20
64886;BME280;51514;52.206;5.114;2023-04-04T04:06:32;103091.75;;;3.45;68.43
64886;BME280;51514;52.206;5.114;2023-04-04T04:08:57;103099.91;;;3.40;68.98
64886;BME280;51514;52.206;5.114;2023-04-04T04:11:23;103100.03;;;3.37;68.68
64886;BME280;51514;52.206;5.114;2023-04-04T04:13:48;103097.31;;;3.39;69.16
64886;BME280;51514;52.206;5.114;2023-04-04T04:16:13;103098.16;;;3.39;68.90
64886;BME280;51514;52.206;5.114;2023-04-04T04:18:39;103100.03;;;3.37;68.76
64886;BME280;51514;52.206;5.114;2023-04-04T04:21:04;103102.75;;;3.36;68.99
64886;BME280;51514;52.206;5.114;2023-04-04T04:23:30;103093.09;;;3.33;68.88
64886;BME280;51514;52.206;5.114;2023-04-04T04:25:56;103106.47;;;3.32;69.19
64886;BME280;51514;52.206;5.114;2023-04-04T04:28:22;103102.88;;;3.33;68.91
64886;BME280;51514;52.206;5.114;2023-04-04T04:30:48;103106.47;;;3.32;69.55
64886;BME280;51514;52.206;5.114;2023-04-04T04:33:14;103087.75;;;3.33;69.69
64886;BME280;51514;52.206;5.114;2023-04-04T04:35:39;103095.81;;;3.32;69.34
64886;BME280;51514;52.206;5.114;2023-04-04T04:38:05;103099.28;;;3.34;69.79
64886;BME280;51514;52.206;5.114;2023-04-04T04:40:31;103095.69;;;3.35;68.79
64886;BME280;51514;52.206;5.114;2023-04-04T04:42:57;103098.47;;;3.32;69.01
64886;BME280;51514;52.206;5.114;2023-04-04T04:45:22;103100.25;;;3.31;69.28
64886;BME280;51514;52.206;5.114;2023-04-04T04:47:48;103101.03;;;3.35;69.51
64886;BME280;51514;52.206;5.114;2023-04-04T04:50:14;103106.22;;;3.38;69.61
64886;BME280;51514;52.206;5.114;2023-04-04T04:52:40;103110.53;;;3.42;69.74
64886;BME280;51514;52.206;5.114;2023-04-04T04:55:06;103104.47;;;3.37;69.54
64886;BME280;51514;52.206;5.114;2023-04-04T04:57:32;103110.06;;;3.30;69.49
64886;BME280;51514;52.206;5.114;2023-04-04T04:59:59;103110.50;;;3.18;70.03
64886;BME280;51514;52.206;5.114;2023-04-04T05:02:25;103109.88;;;3.12;69.75
64886;BME280;51514;52.206;5.114;2023-04-04T05:04:50;103110.94;;;3.06;70.30
64886;BME280;51514;52.206;5.114;2023-04-04T05:07:15;103112.72;;;3.06;70.07
64886;BME280;51514;52.206;5.114;2023-04-04T05:09:41;103104.75;;;3.06;70.13
64886;BME280;51514;52.206;5.114;2023-04-04T05:12:06;103104.59;;;3.10;70.54
64886;BME280;51514;52.206;5.114;2023-04-04T05:14:32;103109.00;;;3.11;70.17
64886;BME280;51514;52.206;5.114;2023-04-04T05:16:57;103108.28;;;3.06;70.03
64886;BME280;51514;52.206;5.114;2023-04-04T05:19:22;103110.94;;;3.06;70.18
64886;BME280;51514;52.206;5.114;2023-04-04T05:21:48;103112.59;;;3.10;69.88
64886;BME280;51514;52.206;5.114;2023-04-04T05:24:13;103121.41;;;3.12;70.48
64886;BME280;51514;52.206;5.114;2023-04-04T05:26:41;103117.81;;;3.13;70.21
64886;BME280;51514;52.206;5.114;2023-04-04T05:29:06;103115.06;;;3.15;69.96
64886;BME280;51514;52.206;5.114;2023-04-04T05:31:32;103115.00;;;3.16;70.60
64886;BME280;51514;52.206;5.114;2023-04-04T05:33:57;103115.94;;;3.15;70.15
64886;BME280;51514;52.206;5.114;2023-04-04T05:36:23;103121.31;;;3.14;70.68
64886;BME280;51514;52.206;5.114;2023-04-04T05:38:48;103116.06;;;3.12;70.98
64886;BME280;51514;52.206;5.114;2023-04-04T05:41:14;103114.44;;;3.08;70.44
64886;BME280;51514;52.206;5.114;2023-04-04T05:43:39;103121.59;;;3.06;70.95
64886;BME280;51514;52.206;5.114;2023-04-04T05:46:05;103117.97;;;3.09;70.57
64886;BME280;51514;52.206;5.114;2023-04-04T05:48:30;103117.88;;;3.12;71.22
64886;BME280;51514;52.206;5.114;2023-04-04T05:50:55;103109.63;;;3.18;71.29
64886;BME280;51514;52.206;5.114;2023-04-04T05:53:21;103113.88;;;3.23;71.25
64886;BME280;51514;52.206;5.114;2023-04-04T05:55:50;103113.66;;;3.29;70.91
64886;BME280;51514;52.206;5.114;2023-04-04T05:58:16;103120.47;;;3.37;71.30
64886;BME280;51514;52.206;5.114;2023-04-04T06:00:42;103110.53;;;3.42;70.52
64886;BME280;51514;52.206;5.114;2023-04-04T06:03:08;103116.53;;;3.47;70.35
64886;BME280;51514;52.206;5.114;2023-04-04T06:05:34;103102.28;;;3.48;71.00
64886;BME280;51514;52.206;5.114;2023-04-04T06:07:59;103112.94;;;3.48;71.12
64886;BME280;51514;52.206;5.114;2023-04-04T06:10:25;103111.00;;;3.53;70.88
64886;BME280;51514;52.206;5.114;2023-04-04T06:12:50;103110.13;;;3.52;70.94
64886;BME280;51514;52.206;5.114;2023-04-04T06:15:15;103112.75;;;3.54;70.59
64886;BME280;51514;52.206;5.114;2023-04-04T06:17:41;103115.97;;;3.62;70.96
64886;BME280;51514;52.206;5.114;2023-04-04T06:20:07;103111.22;;;3.70;70.64
64886;BME280;51514;52.206;5.114;2023-04-04T06:22:32;103107.97;;;3.85;69.76
64886;BME280;51514;52.206;5.114;2023-04-04T06:24:59;103105.47;;;4.02;69.77
64886;BME280;51514;52.206;5.114;2023-04-04T06:27:24;103098.59;;;4.19;69.06
64886;BME280;51514;52.206;5.114;2023-04-04T06:29:50;103105.03;;;4.35;69.95
64886;BME280;51514;52.206;5.114;2023-04-04T06:32:15;103103.59;;;4.48;69.50
64886;BME280;51514;52.206;5.114;2023-04-04T06:34:40;103113.66;;;4.63;69.63
64886;BME280;51514;52.206;5.114;2023-04-04T06:37:05;103117.63;;;4.75;67.88
64886;BME280;51514;52.206;5.114;2023-04-04T06:39:31;103124.44;;;4.82;67.26
64886;BME280;51514;52.206;5.114;2023-04-04T06:41:58;103124.38;;;4.84;66.52
64886;BME280;51514;52.206;5.114;2023-04-04T06:44:24;103123.28;;;4.88;67.00
64886;BME280;51514;52.206;5.114;2023-04-04T06:46:50;103125.38;;;5.01;67.12
64886;BME280;51514;52.206;5.114;2023-04-04T06:49:15;103128.03;;;5.22;66.69
64886;BME280;51514;52.206;5.114;2023-04-04T06:51:40;103125.66;;;5.34;65.37
64886;BME280;51514;52.206;5.114;2023-04-04T06:54:06;103123.81;;;5.55;64.18
64886;BME280;51514;52.206;5.114;2023-04-04T06:56:32;103124.31;;;5.63;62.57
64886;BME280;51514;52.206;5.114;2023-04-04T06:58:57;103117.28;;;5.81;61.60
64886;BME280;51514;52.206;5.114;2023-04-04T07:01:22;103117.34;;;5.98;60.15
64886;BME280;51514;52.206;5.114;2023-04-04T07:03:51;103114.59;;;6.18;59.54
64886;BME280;51514;52.206;5.114;2023-04-04T07:06:18;103132.72;;;6.31;59.96
64886;BME280;51514;52.206;5.114;2023-04-04T07:08:44;103127.25;;;6.34;58.46
64886;BME280;51514;52.206;5.114;2023-04-04T07:11:09;103138.22;;;6.28;58.06
64886;BME280;51514;52.206;5.114;2023-04-04T07:13:35;103132.88;;;6.28;58.07
64886;BME280;51514;52.206;5.114;2023-04-04T07:16:00;103134.34;;;6.35;58.00
64886;BME280;51514;52.206;5.114;2023-04-04T07:18:26;103133.88;;;6.44;57.60
64886;BME280;51514;52.206;5.114;2023-04-04T07:20:51;103138.41;;;6.78;56.92
64886;BME280;51514;52.206;5.114;2023-04-04T07:23:17;103120.59;;;7.11;56.66
64886;BME280;51514;52.206;5.114;2023-04-04T07:25:42;103120.13;;;7.36;55.55
64886;BME280;51514;52.206;5.114;2023-04-04T07:28:07;103120.69;;;7.58;55.47
64886;BME280;51514;52.206;5.114;2023-04-04T07:30:33;103126.81;;;7.78;54.47
64886;BME280;51514;52.206;5.114;2023-04-04T07:32:59;103120.66;;;7.91;53.87
64886;BME280;51514;52.206;5.114;2023-04-04T07:35:24;103125.69;;;8.13;54.84
64886;BME280;51514;52.206;5.114;2023-04-04T07:37:50;103120.59;;;8.40;54.82
64886;BME280;51514;52.206;5.114;2023-04-04T07:40:16;103117.53;;;8.62;52.66
64886;BME280;51514;52.206;5.114;2023-04-04T07:42:45;103120.84;;;8.81;50.70
64886;BME280;51514;52.206;5.114;2023-04-04T07:45:11;103118.97;;;8.97;50.80
64886;BME280;51514;52.206;5.114;2023-04-04T07:47:36;103120.72;;;9.12;50.18
64886;BME280;51514;52.206;5.114;2023-04-04T07:50:02;103121.09;;;9.21;49.58
64886;BME280;51514;52.206;5.114;2023-04-04T07:52:28;103120.88;;;9.39;49.76
64886;BME280;51514;52.206;5.114;2023-04-04T07:54:53;103124.50;;;9.52;49.33
64886;BME280;51514;52.206;5.114;2023-04-04T07:57:19;103118.84;;;9.71;49.34
64886;BME280;51514;52.206;5.114;2023-04-04T07:59:45;103111.03;;;9.81;49.14
64886;BME280;51514;52.206;5.114;2023-04-04T08:02:10;103116.84;;;10.02;49.32
64886;BME280;51514;52.206;5.114;2023-04-04T08:04:35;103113.66;;;10.09;47.82
64886;BME280;51514;52.206;5.114;2023-04-04T08:07:01;103105.75;;;10.20;47.61
64886;BME280;51514;52.206;5.114;2023-04-04T08:09:26;103101.03;;;10.24;45.32
64886;BME280;51514;52.206;5.114;2023-04-04T08:11:55;103111.22;;;10.33;43.35
64886;BME280;51514;52.206;5.114;2023-04-04T08:14:21;103105.34;;;10.53;43.29
64886;BME280;51514;52.206;5.114;2023-04-04T08:16:47;103108.44;;;10.74;44.13
64886;BME280;51514;52.206;5.114;2023-04-04T08:19:12;103108.78;;;10.95;44.15
64886;BME280;51514;52.206;5.114;2023-04-04T08:21:37;103107.72;;;10.97;43.37
64886;BME280;51514;52.206;5.114;2023-04-04T08:24:03;103100.91;;;11.05;43.35
64886;BME280;51514;52.206;5.114;2023-04-04T08:26:28;103101.25;;;11.13;42.83
64886;BME280;51514;52.206;5.114;2023-04-04T08:28:54;103097.06;;;11.21;41.45
64886;BME280;51514;52.206;5.114;2023-04-04T08:31:20;103094.66;;;11.29;41.40
64886;BME280;51514;52.206;5.114;2023-04-04T08:33:45;103089.69;;;11.49;41.03
64886;BME280;51514;52.206;5.114;2023-04-04T08:36:10;103091.75;;;11.45;39.20
64886;BME280;51514;52.206;5.114;2023-04-04T08:38:36;103086.56;;;11.55;38.51
64886;BME280;51514;52.206;5.114;2023-04-04T08:41:01;103077.78;;;11.64;38.72
64886;BME280;51514;52.206;5.114;2023-04-04T08:43:26;103079.63;;;11.51;36.87
64886;BME280;51514;52.206;5.114;2023-04-04T08:45:53;103082.53;;;11.48;38.22
64886;BME280;51514;52.206;5.114;2023-04-04T08:48:19;103084.28;;;11.49;38.26
64886;BME280;51514;52.206;5.114;2023-04-04T08:50:45;103087.41;;;11.55;37.97
64886;BME280;51514;52.206;5.114;2023-04-04T08:53:11;103084.81;;;11.41;36.90
64886;BME280;51514;52.206;5.114;2023-04-04T08:55:38;103091.84;;;11.56;37.54
64886;BME280;51514;52.206;5.114;2023-04-04T08:58:03;103083.31;;;11.75;38.75
64886;BME280;51514;52.206;5.114;2023-04-04T09:00:29;103086.50;;;11.80;37.96
64886;BME280;51514;52.206;5.114;2023-04-04T09:03:01;103083.84;;;11.42;37.63
64886;BME280;51514;52.206;5.114;2023-04-04T09:05:29;103081.56;;;11.49;38.42
64886;BME280;51514;52.206;5.114;2023-04-04T09:07:55;103093.91;;;11.15;37.38
64886;BME280;51514;52.206;5.114;2023-04-04T09:10:20;103091.09;;;11.42;38.92
64886;BME280;51514;52.206;5.114;2023-04-04T09:12:47;103090.09;;;11.68;38.60
64886;BME280;51514;52.206;5.114;2023-04-04T09:15:15;103092.81;;;11.68;37.36
64886;BME280;51514;52.206;5.114;2023-04-04T09:17:40;103094.09;;;11.50;38.15
64886;BME280;51514;52.206;5.114;2023-04-04T09:23:00;103107.00;;;11.33;36.67
64886;BME280;51514;52.206;5.114;2023-04-04T09:25:25;103099.31;;;11.27;36.76
64886;BME280;51514;52.206;5.114;2023-04-04T09:27:53;103093.03;;;11.40;37.59
64886;BME280;51514;52.206;5.114;2023-04-04T09:30:20;103095.19;;;11.47;37.49
64886;BME280;51514;52.206;5.114;2023-04-04T09:32:46;103094.97;;;11.25;36.45
64886;BME280;51514;52.206;5.114;2023-04-04T09:35:11;103093.91;;;11.40;38.24
64886;BME280;51514;52.206;5.114;2023-04-04T09:37:40;103100.81;;;11.57;36.49
64886;BME280;51514;52.206;5.114;2023-04-04T09:40:08;103092.38;;;11.49;36.62
64886;BME280;51514;52.206;5.114;2023-04-04T09:42:34;103086.44;;;11.56;37.30
64886;BME280;51514;52.206;5.114;2023-04-04T09:45:00;103082.22;;;11.65;38.93
64886;BME280;51514;52.206;5.114;2023-04-04T09:47:27;103080.69;;;11.86;36.92
64886;BME280;51514;52.206;5.114;2023-04-04T09:50:01;103079.16;;;11.82;36.91
64886;BME280;51514;52.206;5.114;2023-04-04T09:52:31;103076.13;;;11.87;37.03
64886;BME280;51514;52.206;5.114;2023-04-04T09:55:02;103068.13;;;11.85;38.02
64886;BME280;51514;52.206;5.114;2023-04-04T09:57:29;103074.28;;;11.75;37.25
64886;BME280;51514;52.206;5.114;2023-04-04T10:00:02;103070.84;;;11.73;37.88
64886;BME280;51514;52.206;5.114;2023-04-04T10:02:31;103058.31;;;11.59;38.26
64886;BME280;51514;52.206;5.114;2023-04-04T10:04:56;103061.25;;;11.56;37.72
64886;BME280;51514;52.206;5.114;2023-04-04T10:07:29;103067.38;;;11.83;38.33
64886;BME280;51514;52.206;5.114;2023-04-04T10:09:55;103070.44;;;11.66;37.09
64886;BME280;51514;52.206;5.114;2023-04-04T10:12:23;103073.88;;;11.68;37.07
64886;BME280;51514;52.206;5.114;2023-04-04T10:14:55;103063.13;;;11.92;37.65
64886;BME280;51514;52.206;5.114;2023-04-04T10:17:21;103063.78;;;11.95;35.75
64886;BME280;51514;52.206;5.114;2023-04-04T10:19:48;103073.16;;;12.02;36.32
64886;BME280;51514;52.206;5.114;2023-04-04T10:22:14;103072.03;;;12.18;37.08
64886;BME280;51514;52.206;5.114;2023-04-04T10:24:41;103069.00;;;11.86;36.23
64886;BME280;51514;52.206;5.114;2023-04-04T10:27:06;103065.47;;;12.09;35.67
64886;BME280;51514;52.206;5.114;2023-04-04T10:29:31;103050.66;;;12.26;35.78
64886;BME280;51514;52.206;5.114;2023-04-04T10:32:04;103047.19;;;12.24;36.38
64886;BME280;51514;52.206;5.114;2023-04-04T10:34:41;103055.44;;;11.98;37.46
64886;BME280;51514;52.206;5.114;2023-04-04T10:37:14;103051.91;;;11.73;36.24
64886;BME280;51514;52.206;5.114;2023-04-04T10:40:04;103042.91;;;11.97;37.08
64886;BME280;51514;52.206;5.114;2023-04-04T10:42:31;103038.75;;;12.28;36.20
64886;BME280;51514;52.206;5.114;2023-04-04T10:45:01;103049.91;;;12.48;36.84
64886;BME280;51514;52.206;5.114;2023-04-04T10:47:27;103030.69;;;12.39;37.12
64886;BME280;51514;52.206;5.114;2023-04-04T10:49:54;103039.63;;;12.64;37.92
64886;BME280;51514;52.206;5.114;2023-04-04T10:52:22;103035.97;;;12.87;37.73
64886;BME280;51514;52.206;5.114;2023-04-04T10:54:49;103027.66;;;13.12;38.46
64886;BME280;51514;52.206;5.114;2023-04-04T10:57:16;103033.97;;;13.24;37.09
64886;BME280;51514;52.206;5.114;2023-04-04T11:00:00;103038.16;;;13.17;36.42
64886;BME280;51514;52.206;5.114;2023-04-04T11:02:49;103028.78;;;13.21;35.82
64886;BME280;51514;52.206;5.114;2023-04-04T11:07:45;103027.19;;;13.19;35.39
64886;BME280;51514;52.206;5.114;2023-04-04T11:10:15;103018.94;;;13.20;36.27
64886;BME280;51514;52.206;5.114;2023-04-04T11:12:45;103018.59;;;12.78;35.41
64886;BME280;51514;52.206;5.114;2023-04-04T11:15:12;103018.00;;;12.75;36.03
64886;BME280;51514;52.206;5.114;2023-04-04T11:17:42;103012.13;;;12.92;34.80
64886;BME280;51514;52.206;5.114;2023-04-04T11:20:14;103011.03;;;12.95;34.34
64886;BME280;51514;52.206;5.114;2023-04-04T11:22:41;103012.38;;;13.11;36.46
64886;BME280;51514;52.206;5.114;2023-04-04T11:25:25;103002.09;;;12.70;34.78
64886;BME280;51514;52.206;5.114;2023-04-04T11:27:56;102997.38;;;12.96;35.79
64886;BME280;51514;52.206;5.114;2023-04-04T11:30:22;103003.41;;;13.22;36.15
64886;BME280;51514;52.206;5.114;2023-04-04T11:32:48;103009.41;;;13.03;35.13
64886;BME280;51514;52.206;5.114;2023-04-04T11:35:14;103001.16;;;12.94;34.90
64886;BME280;51514;52.206;5.114;2023-04-04T11:40:18;102998.59;;;13.03;35.83
64886;BME280;51514;52.206;5.114;2023-04-04T11:42:44;102988.75;;;13.13;35.12
64886;BME280;51514;52.206;5.114;2023-04-04T11:45:18;102990.34;;;13.05;35.59
64886;BME280;51514;52.206;5.114;2023-04-04T11:47:48;102987.41;;;12.97;34.69
64886;BME280;51514;52.206;5.114;2023-04-04T11:50:14;102983.53;;;12.88;32.90
64886;BME280;51514;52.206;5.114;2023-04-04T11:52:41;102980.84;;;13.10;34.63
64886;BME280;51514;52.206;5.114;2023-04-04T11:55:17;102981.47;;;12.92;34.97
64886;BME280;51514;52.206;5.114;2023-04-04T11:57:45;102980.59;;;12.80;34.15
64886;BME280;51514;52.206;5.114;2023-04-04T12:00:16;102978.13;;;12.99;33.96
64886;BME280;51514;52.206;5.114;2023-04-04T12:02:53;102975.56;;;12.75;33.44
64886;BME280;51514;52.206;5.114;2023-04-04T12:05:18;102976.75;;;12.60;33.81
64886;BME280;51514;52.206;5.114;2023-04-04T12:07:45;102978.84;;;12.68;32.94
64886;BME280;51514;52.206;5.114;2023-04-04T12:10:11;102966.31;;;12.78;33.82
64886;BME280;51514;52.206;5.114;2023-04-04T12:12:37;102965.94;;;12.71;34.00
64886;BME280;51514;52.206;5.114;2023-04-04T12:15:05;102960.19;;;12.76;34.86
64886;BME280;51514;52.206;5.114;2023-04-04T12:17:32;102951.19;;;12.87;34.86
64886;BME280;51514;52.206;5.114;2023-04-04T12:19:58;102938.88;;;12.94;34.21
64886;BME280;51514;52.206;5.114;2023-04-04T12:22:23;102939.34;;;12.88;33.02
64886;BME280;51514;52.206;5.114;2023-04-04T12:24:49;102939.25;;;12.89;33.63
64886;BME280;51514;52.206;5.114;2023-04-04T12:27:14;102933.94;;;12.88;35.40
64886;BME280;51514;52.206;5.114;2023-04-04T12:29:40;102926.53;;;12.56;34.56
64886;BME280;51514;52.206;5.114;2023-04-04T12:32:06;102929.66;;;12.63;37.53
64886;BME280;51514;52.206;5.114;2023-04-04T12:34:41;102926.56;;;12.90;37.80
64886;BME280;51514;52.206;5.114;2023-04-04T12:37:08;102935.78;;;13.09;35.56
64886;BME280;51514;52.206;5.114;2023-04-04T12:39:39;102919.81;;;13.06;34.97
64886;BME280;51514;52.206;5.114;2023-04-04T12:42:04;102919.53;;;12.98;33.33
64886;BME280;51514;52.206;5.114;2023-04-04T12:44:38;102918.72;;;12.98;32.70
64886;BME280;51514;52.206;5.114;2023-04-04T12:47:07;102921.03;;;12.80;32.64
64886;BME280;51514;52.206;5.114;2023-04-04T12:49:41;102918.72;;;12.75;33.31
64886;BME280;51514;52.206;5.114;2023-04-04T12:52:17;102910.81;;;12.50;32.20
64886;BME280;51514;52.206;5.114;2023-04-04T12:54:45;102910.81;;;12.50;33.38
64886;BME280;51514;52.206;5.114;2023-04-04T12:57:11;102908.34;;;12.69;35.96
64886;BME280;51514;52.206;5.114;2023-04-04T12:59:44;102900.84;;;12.62;33.80
64886;BME280;51514;52.206;5.114;2023-04-04T13:02:12;102897.75;;;12.66;34.35